Time;durP1;ratioP1;P1;durP2;ratioP2;P2;SDS_P1;SDS_P2;PMS_P1;PMS_P2;Temp;Humidity;BMP_temperature;BMP_pressure;BME280_temperature;BME280_humidity;BME280_pressure;Samples;Min_cycle;Max_cycle;Signal;HPM_P1;HPM_P2
2020/12/30 00:01:05;;;;;;;10.75;5.95;;;;;;;8.55;73.07;100330.75;1783932;78;22002;-67
2020/12/30 00:03:35;;;;;;;9.43;4.58;;;;;;;8.55;73.18;100329.44;1810369;77;21220;-68
2020/12/30 00:06:05;;;;;;;10.72;4.90;;;;;;;8.61;72.89;100336.05;1811198;77;21187;-68
2020/12/30 00:08:32;;;;;;;9.50;4.47;;;;;;;8.68;72.44;100342.52;1783771;78;21160;-68
2020/12/30 00:11:00;;;;;;;8.65;3.95;;;;;;;8.71;72.49;100345.40;1780844;78;21234;-68
2020/12/30 00:13:27;;;;;;;8.65;3.90;;;;;;;8.72;72.11;100349.22;1774111;79;21139;-68
2020/12/30 00:15:56;;;;;;;9.88;4.08;;;;;;;8.70;72.04;100351.58;1785680;80;21195;-68
2020/12/30 00:18:23;;;;;;;8.73;3.95;;;;;;;8.67;71.95;100352.63;1780830;78;21861;-68
2020/12/30 00:20:50;;;;;;;8.15;4.42;;;;;;;8.63;71.73;100359.54;1810458;77;21155;-68
2020/12/30 00:23:18;;;;;;;9.60;5.53;;;;;;;8.55;71.89;100355.66;1781154;78;22737;-67
2020/12/30 00:25:46;;;;;;;11.65;6.58;;;;;;;8.51;72.31;100354.70;1767324;79;21149;-68
2020/12/30 00:28:13;;;;;;;10.15;5.72;;;;;;;8.53;72.46;100359.36;1793235;78;21237;-67
2020/12/30 00:30:41;;;;;;;9.45;5.12;;;;;;;8.62;72.53;100352.61;1788302;78;21130;-67
2020/12/30 00:33:09;;;;;;;10.00;5.05;;;;;;;8.68;72.43;100356.94;1784474;79;21167;-67
2020/12/30 00:35:37;;;;;;;20.00;6.55;;;;;;;8.72;72.12;100358.41;1789941;78;21392;-67
2020/12/30 00:38:05;;;;;;;10.30;5.17;;;;;;;8.74;72.10;100356.95;1787448;79;21263;-67
2020/12/30 00:40:32;;;;;;;10.23;5.92;;;;;;;8.72;72.26;100361.48;1784089;78;21143;-68
2020/12/30 00:43:00;;;;;;;14.45;6.05;;;;;;;8.67;72.28;100358.36;1794631;78;21143;-68
2020/12/30 00:45:27;;;;;;;10.78;5.67;;;;;;;8.61;72.34;100355.72;1754055;78;21814;-68
2020/12/30 00:47:55;;;;;;;9.90;4.70;;;;;;;8.52;72.40;100351.98;1784726;78;23380;-68
2020/12/30 00:50:22;;;;;;;7.60;4.12;;;;;;;8.47;72.15;100351.92;1793576;79;21119;-68
2020/12/30 00:52:50;;;;;;;8.58;4.85;;;;;;;8.47;71.89;100354.55;1825669;77;21115;-67
2020/12/30 00:55:18;;;;;;;9.13;5.45;;;;;;;8.54;71.77;100357.95;1827942;78;21892;-67
2020/12/30 00:57:50;;;;;;;10.43;5.80;;;;;;;8.60;71.85;100356.66;1798845;78;21099;-67
2020/12/30 01:00:18;;;;;;;12.58;6.75;;;;;;;8.59;71.36;100355.00;1789734;78;22048;-67
2020/12/30 01:03:49;;;;;;;15.75;9.30;;;;;;;8.47;71.48;100348.84;1821406;76;22281;-67
2020/12/30 01:06:19;;;;;;;18.82;8.85;;;;;;;8.35;71.50;100353.16;1802639;78;21139;-67
2020/12/30 01:08:57;;;;;;;15.23;8.95;;;;;;;8.27;71.48;100361.17;1801486;79;22314;-67
2020/12/30 01:11:29;;;;;;;10.65;7.10;;;;;;;8.18;71.51;100371.36;1814372;79;21112;-68
2020/12/30 01:13:57;;;;;;;12.95;8.60;;;;;;;8.10;71.52;100368.47;1813431;79;21152;-67
2020/12/30 01:16:27;;;;;;;15.00;8.90;;;;;;;8.09;71.47;100359.40;1805505;79;21144;-67
2020/12/30 01:18:55;;;;;;;13.38;7.35;;;;;;;8.15;71.14;100357.19;1809177;79;21732;-66
2020/12/30 01:21:22;;;;;;;16.73;8.98;;;;;;;8.16;71.03;100349.67;1786147;79;23528;-68
2020/12/30 01:23:50;;;;;;;16.37;7.60;;;;;;;8.13;70.82;100355.13;1815098;78;21556;-67
2020/12/30 01:26:17;;;;;;;19.37;9.03;;;;;;;8.09;70.79;100362.02;1807720;79;21187;-68
2020/12/30 01:28:44;;;;;;;15.45;9.40;;;;;;;8.00;70.96;100361.72;1803446;79;21191;-67
2020/12/30 01:31:13;;;;;;;15.72;9.60;;;;;;;7.95;70.99;100356.41;1804878;79;21092;-67
2020/12/30 01:33:43;;;;;;;15.90;9.13;;;;;;;7.89;71.02;100353.75;1814453;78;21244;-67
2020/12/30 01:36:12;;;;;;;14.15;9.13;;;;;;;7.83;71.18;100351.55;1802953;78;21168;-67
2020/12/30 01:38:40;;;;;;;15.55;9.30;;;;;;;7.78;71.18;100355.81;1807658;79;21579;-67
2020/12/30 01:41:08;;;;;;;15.72;9.25;;;;;;;7.79;71.20;100348.30;1789694;79;21123;-68
2020/12/30 01:43:36;;;;;;;16.75;8.45;;;;;;;7.89;71.06;100347.69;1802814;79;21147;-67
2020/12/30 01:46:03;;;;;;;16.95;9.50;;;;;;;7.95;70.96;100342.86;1796117;78;22366;-67
2020/12/30 01:48:33;;;;;;;21.15;11.65;;;;;;;7.96;70.77;100336.65;1791313;79;21603;-67
2020/12/30 01:51:01;;;;;;;17.52;10.50;;;;;;;7.93;70.66;100332.93;1798003;77;21265;-67
2020/12/30 01:53:29;;;;;;;17.07;10.20;;;;;;;7.86;70.57;100333.48;1797057;79;21184;-67
2020/12/30 01:55:57;;;;;;;14.55;9.85;;;;;;;7.75;70.72;100332.89;1807444;78;21124;-67
2020/12/30 01:58:24;;;;;;;19.52;10.53;;;;;;;7.68;70.98;100338.20;1796598;79;21338;-67
2020/12/30 02:00:53;;;;;;;18.17;11.93;;;;;;;7.62;71.26;100338.16;1794884;79;21160;-67
2020/12/30 02:03:20;;;;;;;17.95;10.05;;;;;;;7.63;71.44;100341.13;1816234;78;21123;-67
2020/12/30 02:05:48;;;;;;;16.35;9.80;;;;;;;7.72;71.65;100346.23;1814681;78;21087;-67
2020/12/30 02:08:15;;;;;;;22.85;11.50;;;;;;;7.82;71.65;100331.55;1759531;80;21123;-67
2020/12/30 02:10:43;;;;;;;21.40;11.57;;;;;;;7.88;71.60;100327.66;1775740;79;22829;-67
2020/12/30 02:13:11;;;;;;;19.70;10.78;;;;;;;7.87;71.56;100338.62;1800244;79;21180;-67
2020/12/30 02:15:39;;;;;;;22.85;12.98;;;;;;;7.84;71.41;100336.20;1758133;81;21178;-67
2020/12/30 02:18:06;;;;;;;19.48;12.00;;;;;;;7.77;71.42;100336.27;1794487;79;22276;-67
2020/12/30 02:20:34;;;;;;;19.80;11.83;;;;;;;7.71;71.44;100330.13;1782525;78;21783;-67
2020/12/30 02:23:05;;;;;;;20.90;11.65;;;;;;;7.68;71.82;100340.34;1799841;79;21359;-67
2020/12/30 02:25:33;;;;;;;18.23;11.73;;;;;;;7.72;71.89;100339.68;1787764;78;21547;-67
2020/12/30 02:28:00;;;;;;;16.05;10.38;;;;;;;7.81;71.63;100338.55;1783077;80;21187;-67
2020/12/30 02:30:28;;;;;;;18.12;11.28;;;;;;;7.88;71.73;100328.48;1800910;79;21148;-67
2020/12/30 02:32:56;;;;;;;19.90;11.97;;;;;;;7.90;71.53;100323.14;1771358;80;21163;-67
2020/12/30 02:35:24;;;;;;;19.98;12.00;;;;;;;7.82;71.67;100328.93;1806897;79;21204;-67
2020/12/30 02:37:53;;;;;;;20.52;11.78;;;;;;;7.78;71.72;100326.14;1781182;79;21215;-67
2020/12/30 02:40:23;;;;;;;18.35;12.07;;;;;;;7.72;71.89;100327.90;1760377;81;21194;-67
2020/12/30 02:42:51;;;;;;;21.57;11.70;;;;;;;7.70;71.79;100347.64;1758234;81;21922;-67
2020/12/30 02:45:19;;;;;;;16.17;10.08;;;;;;;7.65;71.79;100339.72;1778958;78;21197;-67
2020/12/30 02:47:46;;;;;;;19.45;9.08;;;;;;;7.66;71.74;100340.09;1758342;81;22319;-67
2020/12/30 02:50:14;;;;;;;19.07;10.55;;;;;;;7.73;71.57;100338.27;1760013;80;21154;-67
2020/12/30 02:52:42;;;;;;;16.65;10.32;;;;;;;7.76;71.44;100333.27;1797164;79;21156;-67
2020/12/30 02:55:09;;;;;;;20.77;10.68;;;;;;;7.75;71.56;100336.83;1773228;80;21690;-67
2020/12/30 02:57:37;;;;;;;17.37;11.70;;;;;;;7.72;71.74;100332.66;1792810;79;21124;-67
2020/12/30 03:00:04;;;;;;;20.00;12.75;;;;;;;7.73;71.88;100329.55;1789602;78;23599;-67
2020/12/30 03:02:32;;;;;;;19.80;11.48;;;;;;;7.73;72.02;100329.55;1801900;79;21915;-67
2020/12/30 03:05:00;;;;;;;17.35;11.18;;;;;;;7.70;71.63;100324.52;1793913;79;21204;-67
2020/12/30 03:07:29;;;;;;;16.45;10.20;;;;;;;7.65;71.72;100333.17;1794118;79;21598;-67
2020/12/30 03:09:57;;;;;;;16.27;10.35;;;;;;;7.68;71.53;100335.09;1801624;79;21182;-67
2020/12/30 03:12:24;;;;;;;15.35;9.65;;;;;;;7.75;71.25;100335.52;1806074;79;21333;-67
2020/12/30 03:14:52;;;;;;;16.07;10.20;;;;;;;7.79;71.26;100322.59;1786455;79;21159;-67
2020/12/30 03:17:19;;;;;;;17.80;10.68;;;;;;;7.86;71.31;100320.38;1803903;78;21101;-67
2020/12/30 03:19:47;;;;;;;18.07;9.75;;;;;;;7.88;71.11;100319.80;1790877;79;21108;-67
2020/12/30 03:22:14;;;;;;;15.70;10.93;;;;;;;7.88;71.10;100318.48;1797840;78;21204;-67
2020/12/30 03:24:41;;;;;;;17.32;10.45;;;;;;;7.86;70.84;100309.42;1795282;79;22888;-67
2020/12/30 03:27:09;;;;;;;16.37;9.93;;;;;;;7.76;70.90;100305.77;1784295;79;21646;-66
2020/12/30 03:29:36;;;;;;;16.90;10.82;;;;;;;7.65;71.05;100308.29;1808137;79;21140;-67
2020/12/30 03:32:04;;;;;;;17.67;10.35;;;;;;;7.55;71.19;100307.63;1804585;79;21490;-66
2020/12/30 03:34:31;;;;;;;14.23;8.75;;;;;;;7.56;71.19;100296.19;1795885;79;21092;-66
2020/12/30 03:36:59;;;;;;;15.03;10.05;;;;;;;7.51;71.07;100300.91;1792478;79;21197;-67
2020/12/30 03:39:26;;;;;;;17.07;9.80;;;;;;;7.46;71.20;100302.17;1782017;79;21920;-67
2020/12/30 03:41:54;;;;;;;19.32;10.10;;;;;;;7.39;71.41;100305.20;1806655;79;21689;-67
2020/12/30 03:44:22;;;;;;;15.13;10.13;;;;;;;7.37;71.69;100299.72;1809021;78;21148;-67
2020/12/30 03:46:49;;;;;;;15.28;10.23;;;;;;;7.37;71.84;100306.27;1793459;79;21560;-67
2020/12/30 03:49:17;;;;;;;17.65;10.40;;;;;;;7.36;71.81;100305.44;1805077;79;22435;-67
2020/12/30 03:51:44;;;;;;;14.30;8.15;;;;;;;7.35;72.00;100310.30;1805635;79;21147;-67
2020/12/30 03:54:12;;;;;;;16.42;9.60;;;;;;;7.39;71.79;100320.08;1797713;79;22390;-66
2020/12/30 03:56:39;;;;;;;12.65;8.20;;;;;;;7.45;71.40;100317.05;1797237;79;21477;-67
2020/12/30 03:59:07;;;;;;;11.60;7.10;;;;;;;7.48;71.43;100319.92;1795939;79;21168;-67
2020/12/30 04:01:34;;;;;;;15.10;8.55;;;;;;;7.49;71.12;100313.75;1803516;79;22301;-67
2020/12/30 04:04:02;;;;;;;19.65;10.65;;;;;;;7.44;71.07;100322.74;1805756;79;21171;-67
2020/12/30 04:06:29;;;;;;;16.57;9.40;;;;;;;7.39;71.50;100318.77;1814839;78;21133;-67
2020/12/30 04:08:57;;;;;;;16.42;9.83;;;;;;;7.35;71.66;100313.39;1799399;79;21524;-65
2020/12/30 04:11:26;;;;;;;15.05;9.43;;;;;;;7.33;71.56;100320.03;1759033;79;21163;-63
2020/12/30 04:13:54;;;;;;;12.35;8.73;;;;;;;7.28;71.50;100314.72;1734800;80;21187;-64
2020/12/30 04:16:23;;;;;;;13.05;8.55;;;;;;;7.28;71.69;100318.20;1801106;79;21112;-63
2020/12/30 04:18:52;;;;;;;14.23;8.05;;;;;;;7.34;71.47;100316.94;1801882;79;21155;-64
2020/12/30 04:21:21;;;;;;;14.23;7.47;;;;;;;7.40;71.50;100323.08;1793118;77;21171;-63
2020/12/30 04:23:50;;;;;;;14.05;9.05;;;;;;;7.42;71.52;100319.88;1794751;77;21134;-63
2020/12/30 04:26:19;;;;;;;15.35;9.95;;;;;;;7.42;71.46;100322.50;1800650;79;21181;-65
2020/12/30 04:28:47;;;;;;;15.15;9.43;;;;;;;7.40;71.53;100325.21;1801939;79;22069;-65
2020/12/30 04:31:16;;;;;;;14.40;8.90;;;;;;;7.41;71.37;100333.89;1797116;79;21145;-64
2020/12/30 04:33:47;;;;;;;15.78;9.58;;;;;;;7.36;71.43;100334.23;1802013;77;21589;-63
2020/12/30 04:36:14;;;;;;;12.73;8.23;;;;;;;7.31;71.47;100336.29;1796409;79;21120;-63
2020/12/30 04:38:42;;;;;;;16.65;9.73;;;;;;;7.32;71.42;100335.84;1794489;79;21437;-63
2020/12/30 04:41:14;;;;;;;15.43;8.58;;;;;;;7.38;71.09;100338.02;1804583;79;21197;-63
2020/12/30 04:43:44;;;;;;;15.45;9.25;;;;;;;7.40;71.04;100342.70;1789283;79;21159;-64
2020/12/30 04:46:13;;;;;;;14.53;9.05;;;;;;;7.42;71.03;100342.13;1794287;79;22587;-63
2020/12/30 04:48:41;;;;;;;14.38;8.73;;;;;;;7.39;71.13;100337.09;1796005;79;21140;-64
2020/12/30 04:51:10;;;;;;;15.58;10.40;;;;;;;7.38;71.19;100340.19;1802070;79;21213;-64
2020/12/30 04:53:38;;;;;;;17.37;9.53;;;;;;;7.36;71.26;100344.70;1739492;80;21226;-64
2020/12/30 04:56:06;;;;;;;16.70;10.00;;;;;;;7.32;71.40;100343.69;1724668;81;21119;-63
2020/12/30 04:58:34;;;;;;;16.45;9.73;;;;;;;7.27;71.35;100331.39;1762946;79;21254;-63
2020/12/30 05:01:01;;;;;;;16.93;9.03;;;;;;;7.23;71.41;100334.69;1731783;79;21089;-63
2020/12/30 05:03:31;;;;;;;18.32;9.68;;;;;;;7.25;71.28;100327.08;1787837;77;21363;-64
2020/12/30 05:06:05;;;;;;;13.83;8.55;;;;;;;7.32;71.23;100326.68;1796598;79;21473;-65
2020/12/30 05:08:32;;;;;;;18.00;11.05;;;;;;;7.37;71.15;100326.72;1796058;79;22483;-65
2020/12/30 05:11:01;;;;;;;18.55;11.10;;;;;;;7.41;71.26;100335.20;1800495;79;21159;-65
2020/12/30 05:13:29;;;;;;;15.58;9.98;;;;;;;7.43;71.22;100329.39;1813702;79;21156;-65
2020/12/30 05:15:59;;;;;;;17.82;10.65;;;;;;;7.42;71.14;100331.17;1807110;79;22077;-64
2020/12/30 05:18:27;;;;;;;16.20;9.85;;;;;;;7.40;71.22;100327.83;1798492;79;21191;-64
2020/12/30 05:20:55;;;;;;;17.50;10.85;;;;;;;7.34;71.39;100323.48;1746838;79;21175;-61
2020/12/30 05:23:23;;;;;;;18.30;10.88;;;;;;;7.28;71.55;100322.13;1806988;78;21152;-60
2020/12/30 05:25:50;;;;;;;13.75;9.15;;;;;;;7.28;71.64;100317.34;1806474;79;21479;-61
2020/12/30 05:28:19;;;;;;;16.85;9.35;;;;;;;7.34;71.54;100320.38;1751182;79;21553;-61
2020/12/30 05:30:46;;;;;;;14.13;8.68;;;;;;;7.40;71.65;100313.91;1754287;79;21219;-60
2020/12/30 05:33:14;;;;;;;16.50;9.70;;;;;;;7.46;71.66;100314.78;1752026;79;21179;-61
2020/12/30 05:35:42;;;;;;;16.85;9.65;;;;;;;7.44;71.66;100319.30;1799620;78;21425;-61
2020/12/30 05:38:10;;;;;;;15.93;9.95;;;;;;;7.39;71.84;100326.14;1794902;77;21187;-67
2020/12/30 05:40:38;;;;;;;18.50;11.12;;;;;;;7.34;72.09;100330.03;1796019;79;23635;-61
2020/12/30 05:43:17;;;;;;;18.80;9.95;;;;;;;7.29;72.31;100331.63;1804331;79;21196;-62
2020/12/30 05:45:52;;;;;;;13.68;9.33;;;;;;;7.25;72.49;100342.78;1743661;81;21167;-62
2020/12/30 05:48:22;;;;;;;14.35;9.50;;;;;;;7.25;72.48;100332.31;1749026;81;21120;-63
2020/12/30 05:50:53;;;;;;;12.63;8.90;;;;;;;7.32;72.50;100334.53;1800578;79;21159;-60
2020/12/30 05:53:21;;;;;;;14.95;9.15;;;;;;;7.38;72.48;100332.79;1801605;79;22641;-61
2020/12/30 05:56:10;;;;;;;15.90;10.08;;;;;;;7.42;72.44;100336.41;1801440;79;21184;-61
2020/12/30 05:58:43;;;;;;;14.60;10.38;;;;;;;7.44;72.63;100346.78;1795712;79;21187;-63
2020/12/30 06:01:27;;;;;;;15.00;9.50;;;;;;;7.46;72.71;100341.45;1803181;79;21689;-63
2020/12/30 06:03:55;;;;;;;18.32;10.93;;;;;;;7.50;72.76;100350.31;1746083;81;21138;-63
2020/12/30 06:06:25;;;;;;;18.23;10.63;;;;;;;7.47;72.70;100353.61;1804480;78;21512;-63
2020/12/30 06:08:53;;;;;;;14.43;8.68;;;;;;;7.41;72.80;100351.77;1806278;78;21791;-65
2020/12/30 06:11:25;;;;;;;15.48;8.93;;;;;;;7.43;72.86;100352.50;1729479;81;21194;-62
2020/12/30 06:13:52;;;;;;;12.85;7.70;;;;;;;7.52;72.73;100354.96;1801701;78;21176;-64
2020/12/30 06:16:25;;;;;;;11.93;7.28;;;;;;;7.58;72.65;100354.56;1803856;78;21142;-64
2020/12/30 06:18:52;;;;;;;14.78;8.25;;;;;;;7.67;72.64;100357.49;1807873;78;22352;-63
2020/12/30 06:21:20;;;;;;;17.67;9.60;;;;;;;7.71;72.49;100352.40;1752446;78;21109;-62
2020/12/30 06:23:49;;;;;;;13.60;8.75;;;;;;;7.72;72.58;100356.23;1786091;78;21179;-63
2020/12/30 06:26:18;;;;;;;14.68;8.03;;;;;;;7.73;72.70;100355.74;1783883;78;21203;-63
2020/12/30 06:28:49;;;;;;;17.62;8.10;;;;;;;7.75;72.66;100360.40;1798163;78;21127;-62
2020/12/30 06:31:17;;;;;;;12.07;7.22;;;;;;;7.76;72.56;100359.47;1762700;80;21366;-62
2020/12/30 06:33:44;;;;;;;14.63;8.33;;;;;;;7.76;72.67;100360.78;1811540;77;21156;-62
2020/12/30 06:36:15;;;;;;;11.00;7.08;;;;;;;7.82;72.37;100352.51;1803299;78;21633;-63
2020/12/30 06:38:43;;;;;;;12.55;7.60;;;;;;;7.90;71.79;100363.30;1763974;78;21198;-63
2020/12/30 06:41:11;;;;;;;13.60;7.53;;;;;;;7.96;71.51;100354.99;1782989;78;21180;-63
2020/12/30 06:43:47;;;;;;;12.25;7.95;;;;;;;7.99;71.43;100350.85;1800254;78;21705;-61
2020/12/30 06:46:25;;;;;;;13.45;8.05;;;;;;;7.99;71.38;100351.34;1794761;78;21191;-61
2020/12/30 06:49:00;;;;;;;11.78;7.30;;;;;;;7.98;71.33;100343.09;1759263;80;21217;-61
2020/12/30 06:51:37;;;;;;;15.83;8.88;;;;;;;7.96;71.35;100329.27;1806741;78;21228;-60
2020/12/30 06:54:05;;;;;;;11.97;7.78;;;;;;;7.93;71.39;100333.41;1793636;78;21117;-62
2020/12/30 06:56:47;;;;;;;12.28;8.15;;;;;;;7.87;71.54;100329.45;1808808;78;23529;-62
2020/12/30 06:59:18;;;;;;;11.93;7.47;;;;;;;7.85;71.49;100337.89;1805905;78;21168;-62
2020/12/30 07:02:07;;;;;;;12.00;6.90;;;;;;;7.93;71.51;100332.10;1802334;78;21548;-61
2020/12/30 07:04:34;;;;;;;14.53;8.80;;;;;;;7.97;71.43;100329.17;1804346;78;21184;-62
2020/12/30 07:07:19;;;;;;;14.50;8.30;;;;;;;7.97;71.43;100334.41;1802452;79;21159;-63
2020/12/30 07:09:47;;;;;;;14.80;8.80;;;;;;;7.94;71.66;100342.48;1799139;79;21265;-62
2020/12/30 07:12:15;;;;;;;16.12;8.98;;;;;;;7.90;71.83;100347.58;1796833;78;21930;-62
2020/12/30 07:14:42;;;;;;;13.55;7.90;;;;;;;7.88;71.92;100350.75;1800604;78;21143;-62
2020/12/30 07:17:11;;;;;;;16.85;9.33;;;;;;;7.84;71.99;100349.78;1802008;79;21215;-64
2020/12/30 07:19:41;;;;;;;11.53;7.85;;;;;;;7.81;72.04;100349.03;1799619;77;21532;-63
2020/12/30 07:22:11;;;;;;;13.43;7.60;;;;;;;7.85;71.99;100343.13;1801131;79;21552;-61
2020/12/30 07:27:39;;;;;;;14.38;7.70;;;;;;;7.96;71.65;100339.27;1821438;76;22844;-68
2020/12/30 07:30:06;;;;;;;13.10;7.78;;;;;;;7.95;71.63;100347.23;1794148;79;21536;-62
2020/12/30 07:32:34;;;;;;;15.93;8.90;;;;;;;7.93;71.74;100349.95;1785049;79;21184;-63
2020/12/30 07:35:02;;;;;;;16.30;9.83;;;;;;;7.95;71.71;100352.03;1795675;79;21640;-63
2020/12/30 07:37:30;;;;;;;15.32;9.60;;;;;;;7.96;71.66;100343.69;1806207;79;21195;-63
2020/12/30 07:39:58;;;;;;;14.05;8.55;;;;;;;7.95;71.61;100343.30;1799171;77;21583;-64
2020/12/30 07:42:27;;;;;;;13.68;8.63;;;;;;;7.95;71.46;100342.00;1808045;79;21190;-61
2020/12/30 07:44:57;;;;;;;12.18;7.37;;;;;;;7.99;71.30;100350.03;1792924;79;21342;-61
2020/12/30 07:47:26;;;;;;;11.57;7.08;;;;;;;8.07;71.09;100350.78;1797635;79;21125;-60
2020/12/30 07:50:01;;;;;;;14.95;7.62;;;;;;;8.13;70.64;100355.13;1786791;79;21152;-61
2020/12/30 07:52:28;;;;;;;13.18;7.72;;;;;;;8.12;70.85;100352.16;1794843;79;21429;-61
2020/12/30 07:54:57;;;;;;;14.20;8.80;;;;;;;8.11;71.04;100349.16;1793950;79;21142;-61
2020/12/30 07:57:24;;;;;;;14.03;7.95;;;;;;;8.08;71.29;100340.67;1800239;79;21374;-62
2020/12/30 07:59:54;;;;;;;12.73;7.50;;;;;;;8.08;71.29;100334.12;1743364;82;21706;-62
2020/12/30 08:02:24;;;;;;;11.55;6.42;;;;;;;8.05;71.30;100336.47;1743372;81;21147;-62
2020/12/30 08:05:01;;;;;;;9.88;6.30;;;;;;;8.06;71.30;100332.09;1734287;81;21143;-61
2020/12/30 08:07:31;;;;;;;10.15;6.28;;;;;;;8.10;71.29;100328.30;1738514;81;21183;-61
2020/12/30 08:09:59;;;;;;;11.28;6.70;;;;;;;8.19;71.15;100326.34;1791053;79;22159;-63
2020/12/30 08:12:27;;;;;;;10.98;5.72;;;;;;;8.25;71.06;100328.52;1790292;77;21179;-62
2020/12/30 08:14:55;;;;;;;13.03;6.72;;;;;;;8.28;71.23;100331.41;1802134;79;21155;-62
2020/12/30 08:17:23;;;;;;;10.68;6.37;;;;;;;8.25;71.50;100326.38;1743372;82;21203;-61
2020/12/30 08:19:51;;;;;;;11.33;6.62;;;;;;;8.25;71.63;100331.13;1752227;81;21191;-60
2020/12/30 08:22:27;;;;;;;12.23;6.97;;;;;;;8.23;71.75;100327.80;1802277;79;21163;-61
2020/12/30 08:24:56;;;;;;;10.43;5.55;;;;;;;8.18;71.87;100332.52;1806751;79;21175;-62
2020/12/30 08:27:29;;;;;;;9.15;5.08;;;;;;;8.10;72.05;100345.33;1807444;79;21128;-62
2020/12/30 08:30:00;;;;;;;11.97;5.00;;;;;;;8.11;72.17;100347.02;1733991;82;21175;-62
2020/12/30 08:32:36;;;;;;;8.73;5.15;;;;;;;8.19;72.05;100339.45;1770540;80;21202;-62
2020/12/30 08:35:07;;;;;;;10.25;5.08;;;;;;;8.27;72.04;100341.52;1769586;80;23428;-62
2020/12/30 08:37:40;;;;;;;11.18;6.05;;;;;;;8.28;71.94;100344.03;1733872;81;21199;-61
2020/12/30 08:40:24;;;;;;;11.20;6.00;;;;;;;8.29;72.12;100339.16;1752693;80;21213;-64
2020/12/30 08:43:12;;;;;;;13.25;5.80;;;;;;;8.31;72.16;100341.67;1738617;81;22369;-63
2020/12/30 08:45:54;;;;;;;9.45;5.10;;;;;;;8.30;72.17;100338.20;1753175;81;21607;-64
2020/12/30 08:48:21;;;;;;;10.50;5.95;;;;;;;8.29;72.19;100333.09;1784849;79;23325;-61
2020/12/30 08:50:52;;;;;;;10.05;5.87;;;;;;;8.35;72.12;100337.42;1793629;77;21191;-62
2020/12/30 08:53:39;;;;;;;7.95;4.67;;;;;;;8.46;71.96;100339.78;1803625;79;21160;-63
2020/12/30 08:56:08;;;;;;;10.78;5.60;;;;;;;8.55;71.79;100333.86;1812956;79;21176;-64
2020/12/30 08:58:36;;;;;;;10.08;5.20;;;;;;;8.55;71.63;100329.44;1789971;79;21214;-63
2020/12/30 09:01:24;;;;;;;10.13;5.25;;;;;;;8.49;71.73;100330.35;1797733;79;21203;-63
2020/12/30 09:04:11;;;;;;;9.33;5.08;;;;;;;8.48;71.85;100326.08;1825049;76;22683;-62
2020/12/30 09:06:39;;;;;;;12.93;6.53;;;;;;;8.38;71.87;100330.62;1749512;82;21135;-63
2020/12/30 09:09:15;;;;;;;10.53;5.60;;;;;;;8.33;72.10;100337.98;1772737;80;21336;-63
2020/12/30 09:11:49;;;;;;;12.95;5.35;;;;;;;8.38;72.05;100326.69;1752650;81;21199;-64
2020/12/30 09:14:21;;;;;;;10.93;5.28;;;;;;;8.49;71.91;100330.35;1794467;79;21053;-65
2020/12/30 09:17:04;;;;;;;11.12;4.80;;;;;;;8.58;71.77;100328.39;1802818;77;21628;-64
2020/12/30 09:19:30;;;;;;;10.05;5.12;;;;;;;8.65;71.42;100327.47;1795298;79;21539;-65
2020/12/30 09:22:09;;;;;;;10.72;5.62;;;;;;;8.66;71.45;100333.92;1795935;79;21187;-63
2020/12/30 09:24:41;;;;;;;10.13;5.53;;;;;;;8.67;71.41;100326.40;1800793;79;21203;-64
2020/12/30 09:27:22;;;;;;;12.35;6.22;;;;;;;8.75;71.27;100321.91;1798468;79;22880;-64
2020/12/30 09:30:15;;;;;;;9.90;6.00;;;;;;;8.73;71.12;100312.84;1767979;80;21623;-63
2020/12/30 09:32:44;;;;;;;13.03;5.92;;;;;;;8.71;71.07;100312.61;1741523;82;21210;-64
2020/12/30 09:35:14;;;;;;;11.18;6.10;;;;;;;8.75;70.54;100307.48;1751027;80;21216;-63
2020/12/30 09:37:52;;;;;;;9.45;5.45;;;;;;;8.84;70.29;100309.45;1771038;80;21426;-63
2020/12/30 09:40:19;;;;;;;11.20;5.75;;;;;;;8.90;69.85;100310.77;1771471;80;21184;-63
2020/12/30 09:42:47;;;;;;;9.50;5.35;;;;;;;8.89;70.09;100307.31;1762539;80;21097;-63
2020/12/30 09:45:20;;;;;;;9.13;5.83;;;;;;;8.89;70.11;100294.19;1760658;79;21509;-64
2020/12/30 09:47:47;;;;;;;10.23;5.17;;;;;;;8.88;70.31;100293.00;1749968;81;21120;-63
2020/12/30 09:50:17;;;;;;;9.75;6.03;;;;;;;8.83;70.49;100295.95;1761132;80;21183;-63
2020/12/30 09:52:45;;;;;;;9.33;5.55;;;;;;;8.76;70.65;100294.74;1752169;81;21201;-65
2020/12/30 09:55:16;;;;;;;9.40;5.45;;;;;;;8.70;70.85;100289.45;1764306;80;21195;-63
2020/12/30 09:57:44;;;;;;;9.45;5.62;;;;;;;8.68;70.93;100288.73;1761508;80;21890;-60
2020/12/30 10:00:11;;;;;;;10.30;5.17;;;;;;;8.73;71.02;100281.36;1758481;80;21554;-60
2020/12/30 10:02:39;;;;;;;11.18;6.28;;;;;;;8.79;71.03;100283.17;1755495;81;21772;-61
2020/12/30 10:05:06;;;;;;;10.43;5.75;;;;;;;8.83;71.14;100283.31;1764689;80;21438;-61
2020/12/30 10:07:35;;;;;;;14.78;6.70;;;;;;;8.85;71.08;100278.78;1755983;80;21121;-61
2020/12/30 10:10:03;;;;;;;12.28;6.85;;;;;;;8.84;71.11;100282.34;1755651;80;22016;-61
2020/12/30 10:12:30;;;;;;;14.43;6.25;;;;;;;8.84;70.88;100287.14;1755164;81;21182;-60
2020/12/30 10:14:58;;;;;;;11.43;5.95;;;;;;;8.82;71.22;100291.64;1752607;80;21216;-59
2020/12/30 10:17:25;;;;;;;16.93;6.78;;;;;;;8.74;71.51;100287.44;1698129;83;21116;-60
2020/12/30 10:19:53;;;;;;;11.57;5.92;;;;;;;8.72;71.54;100278.39;1712347;83;21203;-60
2020/12/30 10:22:20;;;;;;;13.98;6.78;;;;;;;8.76;71.51;100272.89;1694419;83;21211;-60
2020/12/30 10:24:48;;;;;;;12.65;7.28;;;;;;;8.78;71.56;100266.59;1705937;82;21690;-60
2020/12/30 10:27:16;;;;;;;12.10;6.67;;;;;;;8.82;71.70;100267.20;1691234;83;21225;-60
2020/12/30 10:29:44;;;;;;;10.90;6.65;;;;;;;8.83;71.86;100268.89;1685210;83;22299;-61
2020/12/30 10:32:11;;;;;;;11.90;6.25;;;;;;;8.85;71.88;100272.23;1684976;83;21125;-61
2020/12/30 10:34:38;;;;;;;12.20;7.12;;;;;;;8.84;71.80;100266.15;1688371;82;22210;-60
2020/12/30 10:37:06;;;;;;;14.18;6.62;;;;;;;8.81;71.75;100258.50;1736498;81;21121;-61
2020/12/30 10:39:35;;;;;;;10.88;5.62;;;;;;;8.81;71.83;100261.13;1745390;81;21168;-61
2020/12/30 10:42:03;;;;;;;13.18;5.83;;;;;;;8.82;71.86;100259.33;1743093;80;21615;-62
2020/12/30 10:44:34;;;;;;;12.33;6.90;;;;;;;8.84;71.91;100242.99;1742274;81;21767;-61
2020/12/30 10:47:01;;;;;;;15.85;7.17;;;;;;;8.86;72.07;100244.56;1739194;81;23443;-62
2020/12/30 10:49:29;;;;;;;13.75;6.72;;;;;;;8.88;72.23;100232.64;1735725;82;21586;-62
2020/12/30 10:51:57;;;;;;;14.55;6.58;;;;;;;8.87;72.22;100234.41;1740269;80;21148;-61
2020/12/30 10:54:25;;;;;;;13.38;7.50;;;;;;;8.87;72.36;100236.20;1736319;81;21816;-61
2020/12/30 10:56:54;;;;;;;13.68;6.45;;;;;;;8.85;72.42;100238.11;1744794;81;21185;-62
2020/12/30 10:59:21;;;;;;;12.47;7.45;;;;;;;8.89;72.17;100238.23;1745628;81;22040;-61
2020/12/30 11:01:53;;;;;;;11.35;6.60;;;;;;;8.97;71.89;100231.11;1749945;80;21861;-61
2020/12/30 11:04:21;;;;;;;10.10;5.87;;;;;;;9.00;71.92;100234.33;1744869;81;22214;-62
2020/12/30 11:06:52;;;;;;;12.40;7.08;;;;;;;9.04;71.74;100233.13;1741489;81;21169;-66
2020/12/30 11:09:19;;;;;;;10.80;6.17;;;;;;;9.06;71.86;100226.45;1741271;80;21243;-62
2020/12/30 11:11:48;;;;;;;11.10;6.08;;;;;;;9.04;71.82;100230.50;1745153;81;22267;-62
2020/12/30 11:14:16;;;;;;;10.03;5.12;;;;;;;9.04;71.76;100228.37;1751137;81;21200;-63
2020/12/30 11:16:49;;;;;;;9.20;4.35;;;;;;;8.96;71.87;100232.05;1757564;80;21241;-60
2020/12/30 11:19:17;;;;;;;10.95;5.45;;;;;;;8.95;71.90;100228.59;1750431;80;21657;-63
2020/12/30 11:21:52;;;;;;;6.80;3.62;;;;;;;9.06;71.75;100214.64;1684210;83;21149;-61
2020/12/30 11:24:20;;;;;;;8.70;4.58;;;;;;;9.11;71.58;100206.80;1743777;81;21375;-62
2020/12/30 11:26:48;;;;;;;7.95;4.47;;;;;;;9.15;71.51;100207.39;1752579;81;21173;-62
2020/12/30 11:29:16;;;;;;;8.83;3.95;;;;;;;9.16;71.60;100201.66;1754569;81;21109;-62
2020/12/30 11:31:44;;;;;;;8.38;3.98;;;;;;;9.13;71.75;100197.95;1755213;81;21184;-60
2020/12/30 11:34:12;;;;;;;10.00;4.85;;;;;;;9.14;71.80;100198.32;1734564;81;21587;-62
2020/12/30 11:36:42;;;;;;;6.67;3.52;;;;;;;9.13;71.83;100200.58;1743649;81;21710;-61
2020/12/30 11:39:09;;;;;;;7.67;4.22;;;;;;;9.18;71.86;100191.86;1741802;81;21958;-61